Reilly, Pennsylvania
Current Conditions -  °F | °C
As of 2:58 AM on Saturday 25 Oct 2014 (Local Time) from KMUI Reporting Station
Clear Clear  
Wind Chill: 55°   Ceiling: Unl
Heat Index: 55°   Visibility: 10mi
Dew Point: 40°   Wind: 6mph
Humidity: 58%   Direction: NA
Pressure: 29.92"   Gusts: NA
Location:  40.6756°N, 76.3278°W
Report Text: KMUI 250658Z AUTO VRB05KT 10SM CLR 13/05 A2992 RMK AO2 SLP134 T01290047 $
Loading
Personal Weather Stations






























Interactive Weather Map
Tropical Storm Tracking
New forecast layout! Learn more

10-Day Weather Forecast

Advertisements
Track Severe Weather on mobile